createdAt,value
2018-09-14T00:00:11.620Z,54.50
2018-09-14T00:01:15.568Z,54.60
2018-09-14T00:02:19.515Z,54.60
2018-09-14T00:03:22.542Z,54.50
2018-09-14T00:04:26.833Z,54.50
2018-09-14T00:05:31.059Z,54.50
2018-09-14T00:06:35.172Z,54.50
2018-09-14T00:07:39.336Z,54.50
2018-09-14T00:08:42.502Z,54.50
2018-09-14T00:09:45.723Z,54.50
2018-09-14T00:10:48.961Z,54.50
2018-09-14T00:11:52.084Z,54.50
2018-09-14T00:12:55.196Z,54.50
2018-09-14T00:13:58.280Z,54.50
2018-09-14T00:15:01.352Z,54.50
2018-09-14T00:16:04.410Z,54.50
2018-09-14T00:17:07.705Z,54.50
2018-09-14T00:18:10.825Z,54.50
2018-09-14T00:19:14.529Z,54.50
2018-09-14T00:20:17.985Z,54.50
2018-09-14T00:21:21.189Z,54.50
2018-09-14T00:22:24.232Z,54.50
2018-09-14T00:23:27.263Z,54.50
2018-09-14T00:24:30.429Z,54.50
2018-09-14T00:25:33.626Z,54.50
2018-09-14T00:26:36.725Z,54.50
2018-09-14T00:27:39.767Z,54.50
2018-09-14T00:28:42.971Z,54.50
2018-09-14T00:29:46.044Z,54.50
2018-09-14T00:30:49.100Z,54.50
2018-09-14T00:31:52.334Z,54.50
2018-09-14T00:32:55.462Z,54.50
2018-09-14T00:33:58.650Z,54.40
2018-09-14T00:35:01.828Z,54.40
2018-09-14T00:36:04.998Z,54.40
2018-09-14T00:37:08.071Z,54.50
2018-09-14T00:38:11.224Z,54.40
2018-09-14T00:39:14.346Z,54.40
2018-09-14T00:40:17.616Z,54.40
2018-09-14T00:41:20.814Z,54.40
2018-09-14T00:42:23.944Z,54.50
2018-09-14T00:43:27.210Z,54.40
2018-09-14T00:44:30.381Z,54.40
2018-09-14T00:45:33.479Z,54.40
2018-09-14T00:46:36.591Z,54.40
2018-09-14T00:47:39.744Z,54.40
2018-09-14T00:48:42.860Z,54.40
2018-09-14T00:49:46.964Z,54.40
2018-09-14T00:50:51.024Z,54.50
2018-09-14T00:51:55.479Z,55.00
2018-09-14T00:52:58.534Z,54.40
2018-09-14T00:54:01.624Z,54.40
2018-09-14T00:55:04.716Z,54.30
2018-09-14T00:56:07.759Z,54.40
2018-09-14T00:57:10.932Z,54.40
2018-09-14T00:58:14.045Z,54.30
2018-09-14T00:59:17.157Z,54.30
2018-09-14T01:00:20.231Z,54.30
2018-09-14T01:01:23.320Z,54.30
2018-09-14T01:02:26.731Z,54.30
2018-09-14T01:03:29.940Z,54.30
2018-09-14T01:04:33.085Z,54.30
2018-09-14T01:05:36.317Z,54.30
2018-09-14T01:06:39.629Z,54.30
2018-09-14T01:07:43.608Z,54.30
2018-09-14T01:08:46.987Z,54.30
2018-09-14T01:09:50.343Z,54.30
2018-09-14T01:10:53.674Z,54.30
2018-09-14T01:11:58.974Z,54.30
2018-09-14T01:13:02.179Z,54.30
2018-09-14T01:14:05.315Z,54.30
2018-09-14T01:15:08.592Z,54.30
2018-09-14T01:16:11.624Z,54.30
2018-09-14T01:17:14.893Z,54.30
2018-09-14T01:18:17.996Z,54.20
2018-09-14T01:19:21.046Z,54.30
2018-09-14T01:20:24.123Z,54.30
2018-09-14T01:21:27.181Z,54.30
2018-09-14T01:22:30.267Z,54.30
2018-09-14T01:23:33.367Z,54.30
2018-09-14T01:24:36.439Z,54.30
2018-09-14T01:25:39.673Z,54.30
2018-09-14T01:26:42.763Z,54.30
2018-09-14T01:27:45.924Z,54.30
2018-09-14T01:28:49.256Z,54.30
2018-09-14T01:29:52.352Z,54.20
2018-09-14T01:30:55.513Z,54.10
2018-09-14T01:31:58.806Z,54.30
2018-09-14T01:33:01.948Z,54.30
2018-09-14T01:34:04.986Z,54.20
2018-09-14T01:35:13.484Z,54.20
2018-09-14T01:36:16.659Z,54.30
2018-09-14T01:37:19.784Z,53.80
2018-09-14T01:38:23.084Z,54.30
2018-09-14T01:39:26.300Z,54.30
2018-09-14T01:40:29.382Z,54.20
2018-09-14T01:41:32.618Z,54.20
2018-09-14T01:42:35.788Z,54.20
2018-09-14T01:43:39.138Z,54.20
2018-09-14T01:44:42.192Z,54.20
2018-09-14T01:45:45.279Z,54.20
2018-09-14T01:46:48.545Z,54.20
2018-09-14T01:47:51.598Z,54.20
2018-09-14T01:48:54.728Z,54.20
2018-09-14T01:49:57.904Z,54.20
2018-09-14T01:51:01.497Z,54.20
2018-09-14T01:52:04.856Z,54.20
2018-09-14T01:53:08.023Z,54.20
2018-09-14T01:54:11.241Z,54.20
2018-09-14T01:55:14.644Z,54.10
2018-09-14T01:56:17.806Z,54.20
2018-09-14T01:57:20.984Z,54.30
2018-09-14T01:58:25.744Z,54.20
2018-09-14T01:59:28.974Z,54.20
2018-09-14T02:00:32.032Z,54.10
2018-09-14T02:01:35.126Z,54.20
2018-09-14T02:02:38.128Z,54.10
2018-09-14T02:03:41.168Z,54.10
2018-09-14T02:04:44.299Z,54.10
2018-09-14T02:05:47.391Z,54.10
2018-09-14T02:06:50.591Z,54.10
2018-09-14T02:07:53.783Z,54.10
2018-09-14T02:08:56.992Z,54.10
2018-09-14T02:10:00.197Z,54.10
2018-09-14T02:11:03.441Z,54.10
2018-09-14T02:12:06.881Z,54.10
2018-09-14T02:13:10.051Z,54.10
2018-09-14T02:14:13.130Z,54.80
2018-09-14T02:15:16.656Z,54.10
2018-09-14T02:16:19.965Z,54.00
2018-09-14T02:17:23.122Z,54.10
2018-09-14T02:18:26.906Z,54.10
2018-09-14T02:19:30.057Z,54.10
2018-09-14T02:20:33.193Z,54.00
2018-09-14T02:21:36.259Z,54.10
2018-09-14T02:22:39.426Z,54.10
2018-09-14T02:23:42.537Z,54.00
2018-09-14T02:24:45.689Z,54.10
2018-09-14T02:25:49.444Z,54.00
2018-09-14T02:26:52.537Z,54.00
2018-09-14T02:27:55.633Z,54.10
2018-09-14T02:28:58.870Z,54.00
2018-09-14T02:30:02.456Z,54.00
2018-09-14T02:31:05.683Z,54.00
2018-09-14T02:32:08.808Z,54.00
2018-09-14T02:33:11.930Z,54.00
2018-09-14T02:34:15.027Z,54.10
2018-09-14T02:35:19.122Z,54.70
2018-09-14T02:36:22.629Z,54.00
2018-09-14T02:37:25.987Z,54.10
2018-09-14T02:38:28.955Z,54.00
2018-09-14T02:39:32.278Z,54.10
2018-09-14T02:40:35.590Z,54.10
2018-09-14T02:41:38.713Z,54.00
2018-09-14T02:42:41.825Z,54.00
2018-09-14T02:43:44.932Z,54.10
2018-09-14T02:44:48.013Z,54.00
2018-09-14T02:45:51.251Z,54.00
2018-09-14T02:46:54.318Z,54.00
2018-09-14T02:47:57.497Z,54.00
2018-09-14T02:49:00.493Z,54.00
2018-09-14T02:50:03.552Z,54.00
2018-09-14T02:51:06.609Z,54.10
2018-09-14T02:52:09.737Z,54.10
2018-09-14T02:53:13.223Z,54.10
2018-09-14T02:54:16.490Z,54.00
2018-09-14T02:55:19.628Z,54.10
2018-09-14T02:56:22.845Z,54.00
2018-09-14T02:57:26.100Z,54.10
2018-09-14T02:58:29.140Z,54.30
2018-09-14T02:59:32.287Z,54.10
2018-09-14T03:00:35.703Z,54.00
2018-09-14T03:01:39.024Z,54.00
2018-09-14T03:02:42.240Z,54.00
2018-09-14T03:03:45.312Z,54.10
2018-09-14T03:04:48.424Z,54.00
2018-09-14T03:05:51.551Z,54.00
2018-09-14T03:06:54.621Z,54.00
2018-09-14T03:07:57.681Z,54.00
2018-09-14T03:09:00.863Z,54.10
2018-09-14T03:10:04.313Z,54.00
2018-09-14T03:11:07.502Z,54.00
2018-09-14T03:12:10.622Z,54.00
2018-09-14T03:13:13.593Z,54.00
2018-09-14T03:14:16.758Z,54.00
2018-09-14T03:15:19.943Z,54.00
2018-09-14T03:16:23.027Z,54.00
2018-09-14T03:17:26.193Z,54.00
2018-09-14T03:18:29.280Z,54.00
2018-09-14T03:19:32.333Z,54.00
2018-09-14T03:20:35.420Z,54.00
2018-09-14T03:21:38.563Z,54.00
2018-09-14T03:22:41.573Z,54.00
2018-09-14T03:23:44.877Z,54.00
2018-09-14T03:24:47.982Z,54.00
2018-09-14T03:25:51.073Z,54.00
2018-09-14T03:26:54.209Z,54.00
2018-09-14T03:27:57.357Z,54.00
2018-09-14T03:29:00.427Z,54.00
2018-09-14T03:30:03.535Z,54.00
2018-09-14T03:31:07.208Z,54.00
2018-09-14T03:32:10.807Z,54.00
2018-09-14T03:33:14.255Z,54.00
2018-09-14T03:34:17.361Z,54.00
2018-09-14T03:35:20.515Z,54.00
2018-09-14T03:36:23.664Z,54.00
2018-09-14T03:37:27.028Z,54.00
2018-09-14T03:38:30.181Z,54.00
2018-09-14T03:39:33.322Z,54.00
2018-09-14T03:40:36.515Z,54.00
2018-09-14T03:41:39.762Z,54.00
2018-09-14T03:42:42.744Z,54.00
2018-09-14T03:43:45.938Z,54.00
2018-09-14T03:44:49.001Z,54.00
2018-09-14T03:45:52.221Z,54.00
2018-09-14T03:46:55.318Z,54.00
2018-09-14T03:47:58.474Z,54.00
2018-09-14T03:49:01.596Z,54.00
2018-09-14T03:50:04.908Z,54.00
2018-09-14T03:51:08.092Z,54.00
2018-09-14T03:52:11.156Z,53.90
2018-09-14T03:53:14.169Z,53.90
2018-09-14T03:54:17.198Z,53.90
2018-09-14T03:55:20.342Z,54.00
2018-09-14T03:56:23.548Z,53.90
2018-09-14T03:57:26.646Z,53.90
2018-09-14T03:58:29.764Z,54.00
2018-09-14T03:59:34.417Z,53.90
2018-09-14T04:00:37.555Z,54.00
2018-09-14T04:01:40.835Z,53.90
2018-09-14T04:02:43.820Z,53.90
2018-09-14T04:03:46.920Z,53.90
2018-09-14T04:04:50.101Z,54.00
2018-09-14T04:05:53.147Z,53.90
2018-09-14T04:06:56.306Z,53.90
2018-09-14T04:07:59.472Z,53.90
2018-09-14T04:09:02.582Z,53.90
2018-09-14T04:10:05.725Z,53.90
2018-09-14T04:11:09.004Z,53.90
2018-09-14T04:12:12.144Z,54.00
2018-09-14T04:13:15.380Z,53.90
2018-09-14T04:14:18.489Z,53.90
2018-09-14T04:15:21.491Z,53.90
2018-09-14T04:16:24.616Z,53.90
2018-09-14T04:17:27.749Z,53.90
2018-09-14T04:18:30.871Z,53.90
2018-09-14T04:19:34.040Z,53.90
2018-09-14T04:20:37.267Z,53.90
2018-09-14T04:21:40.430Z,53.90
2018-09-14T04:22:43.580Z,53.90
2018-09-14T04:23:46.821Z,53.90
2018-09-14T04:24:49.892Z,53.90
2018-09-14T04:25:53.000Z,53.90
2018-09-14T04:26:56.116Z,53.90
2018-09-14T04:27:59.273Z,53.90
2018-09-14T04:29:02.428Z,53.90
2018-09-14T04:30:05.590Z,53.90
2018-09-14T04:31:08.835Z,53.90
2018-09-14T04:32:12.007Z,53.90
2018-09-14T04:33:15.144Z,53.90
2018-09-14T04:34:18.319Z,53.90
2018-09-14T04:35:21.406Z,53.90
2018-09-14T04:36:24.608Z,53.90
2018-09-14T04:37:27.720Z,53.90
2018-09-14T04:38:31.046Z,53.90
2018-09-14T04:39:34.093Z,53.80
2018-09-14T04:40:37.154Z,53.90
2018-09-14T04:41:40.420Z,53.80
2018-09-14T04:42:43.523Z,53.90
2018-09-14T04:43:46.669Z,53.90
2018-09-14T04:44:49.813Z,53.80
2018-09-14T04:45:53.916Z,53.90
2018-09-14T04:46:58.606Z,53.90
2018-09-14T04:48:03.022Z,53.90
2018-09-14T04:49:06.113Z,53.90
2018-09-14T04:50:11.320Z,53.90
2018-09-14T04:51:14.831Z,53.90
2018-09-14T04:52:17.943Z,53.90
2018-09-14T04:53:20.939Z,53.90
2018-09-14T04:54:24.021Z,53.90
2018-09-14T04:55:27.168Z,53.80
2018-09-14T04:56:30.260Z,53.90
2018-09-14T04:57:33.305Z,53.90
2018-09-14T04:58:36.344Z,53.90
2018-09-14T04:59:39.459Z,53.90
2018-09-14T05:00:42.641Z,53.90
2018-09-14T05:01:45.925Z,53.90
2018-09-14T05:02:49.036Z,53.90
2018-09-14T05:03:52.086Z,53.90
2018-09-14T05:04:55.536Z,53.90
2018-09-14T05:05:58.662Z,53.90
2018-09-14T05:07:01.820Z,53.90
2018-09-14T05:08:06.964Z,53.90
2018-09-14T05:09:10.468Z,53.90
2018-09-14T05:10:15.958Z,53.90
2018-09-14T05:11:19.294Z,53.90
2018-09-14T05:12:22.728Z,53.90
2018-09-14T05:13:25.940Z,53.80
2018-09-14T05:14:29.198Z,53.90
2018-09-14T05:15:32.876Z,53.90
2018-09-14T05:16:36.161Z,53.90
2018-09-14T05:17:39.540Z,53.90
2018-09-14T05:18:44.159Z,53.90
2018-09-14T05:19:47.221Z,53.80
2018-09-14T05:20:50.459Z,53.80
2018-09-14T05:21:53.552Z,53.80
2018-09-14T05:22:56.743Z,53.80
2018-09-14T05:24:00.299Z,53.90
2018-09-14T05:25:03.489Z,53.90
2018-09-14T05:26:07.571Z,53.80
2018-09-14T05:27:12.485Z,53.90
2018-09-14T05:28:15.877Z,53.90
2018-09-14T05:29:19.567Z,53.90
2018-09-14T05:30:23.055Z,53.90
2018-09-14T05:31:28.649Z,53.90
2018-09-14T05:32:31.694Z,53.40
2018-09-14T05:33:34.879Z,54.40
2018-09-14T05:34:37.927Z,53.80
2018-09-14T05:35:41.085Z,53.80
2018-09-14T05:36:44.220Z,53.80
2018-09-14T05:37:47.270Z,53.80
2018-09-14T05:38:50.381Z,53.80
2018-09-14T05:39:53.418Z,53.90
2018-09-14T05:40:56.604Z,53.90
2018-09-14T05:41:59.803Z,53.90
2018-09-14T05:43:03.044Z,53.90
2018-09-14T05:44:06.145Z,53.90
2018-09-14T05:45:09.394Z,53.90
2018-09-14T05:46:12.399Z,53.90
2018-09-14T05:47:15.425Z,53.90
2018-09-14T05:48:18.480Z,53.90
2018-09-14T05:49:21.623Z,53.90
2018-09-14T05:50:24.609Z,54.00
2018-09-14T05:51:27.597Z,54.50
2018-09-14T05:52:30.973Z,54.00
2018-09-14T05:53:34.462Z,53.90
2018-09-14T05:54:37.586Z,53.90
2018-09-14T05:55:41.151Z,54.00
2018-09-14T05:56:44.345Z,53.90
2018-09-14T05:57:47.379Z,54.00
2018-09-14T05:58:50.400Z,54.00
2018-09-14T05:59:53.476Z,54.00
2018-09-14T06:00:56.456Z,54.00
2018-09-14T06:01:59.456Z,53.90
2018-09-14T06:03:02.843Z,54.00
2018-09-14T06:04:06.432Z,53.90
2018-09-14T06:05:10.135Z,53.90
2018-09-14T06:06:13.217Z,54.00
2018-09-14T06:07:16.332Z,53.90
2018-09-14T06:08:19.460Z,53.90
2018-09-14T06:09:22.646Z,53.90
2018-09-14T06:10:25.787Z,53.90
2018-09-14T06:11:28.810Z,53.90
2018-09-14T06:12:31.889Z,53.90
2018-09-14T06:13:35.636Z,53.90
2018-09-14T06:14:38.745Z,53.90
2018-09-14T06:15:41.885Z,53.90
2018-09-14T06:16:44.968Z,53.90
2018-09-14T06:17:47.997Z,53.90
2018-09-14T06:18:51.212Z,53.90
2018-09-14T06:19:54.757Z,53.90
2018-09-14T06:20:58.126Z,53.90
2018-09-14T06:22:01.200Z,53.90
2018-09-14T06:23:04.423Z,53.90
2018-09-14T06:24:07.421Z,53.90
2018-09-14T06:25:10.579Z,53.90
2018-09-14T06:26:13.900Z,53.90
2018-09-14T06:27:16.962Z,53.90
2018-09-14T06:28:20.258Z,53.90
2018-09-14T06:29:23.379Z,54.40
2018-09-14T06:30:26.642Z,53.90
2018-09-14T06:31:29.905Z,53.90
2018-09-14T06:32:33.085Z,53.80
2018-09-14T06:33:36.341Z,53.80
2018-09-14T06:34:39.570Z,53.80
2018-09-14T06:35:42.694Z,53.80
2018-09-14T06:36:45.785Z,53.80
2018-09-14T06:37:49.009Z,53.80
2018-09-14T06:38:52.096Z,53.80
2018-09-14T06:39:55.243Z,53.80
2018-09-14T06:40:58.304Z,53.70
2018-09-14T06:42:01.349Z,53.80
2018-09-14T06:43:04.416Z,53.80
2018-09-14T06:44:07.884Z,53.80
2018-09-14T06:45:11.163Z,53.80
2018-09-14T06:46:14.167Z,53.80
2018-09-14T06:47:17.224Z,53.80
2018-09-14T06:48:20.221Z,53.80
2018-09-14T06:49:23.252Z,53.80
2018-09-14T06:50:26.655Z,53.80
2018-09-14T06:51:29.920Z,53.80
2018-09-14T06:52:32.944Z,53.80
2018-09-14T06:53:35.934Z,53.80
2018-09-14T06:54:38.972Z,53.80
2018-09-14T06:55:41.948Z,53.80
2018-09-14T06:56:44.955Z,53.80
2018-09-14T06:57:48.079Z,53.80
2018-09-14T06:58:51.099Z,53.80
2018-09-14T06:59:54.129Z,53.80
2018-09-14T07:00:57.155Z,53.80
2018-09-14T07:02:00.143Z,53.70
2018-09-14T07:03:03.199Z,53.60
2018-09-14T07:04:06.200Z,53.70
2018-09-14T07:05:09.220Z,53.80
2018-09-14T07:06:12.203Z,54.00
2018-09-14T07:07:15.250Z,54.10
2018-09-14T07:08:18.312Z,54.00
2018-09-14T07:09:21.332Z,54.00
2018-09-14T07:10:24.416Z,54.10
2018-09-14T07:11:27.452Z,54.10
2018-09-14T07:12:30.568Z,54.20
2018-09-14T07:13:33.890Z,54.20
2018-09-14T07:14:36.983Z,54.30
2018-09-14T07:15:40.055Z,54.70
2018-09-14T07:16:43.176Z,54.80
2018-09-14T07:17:46.201Z,54.80
2018-09-14T07:18:49.319Z,54.70
2018-09-14T07:19:52.377Z,54.60
2018-09-14T07:20:55.408Z,54.60
2018-09-14T07:21:58.511Z,54.60
2018-09-14T07:23:01.512Z,55.10
2018-09-14T07:24:04.649Z,54.50
2018-09-14T07:25:07.742Z,54.50
2018-09-14T07:26:10.989Z,54.50
2018-09-14T07:27:14.055Z,54.50
2018-09-14T07:28:17.061Z,54.50
2018-09-14T07:29:20.155Z,54.50
2018-09-14T07:30:23.374Z,54.50
2018-09-14T07:31:26.585Z,54.70
2018-09-14T07:32:29.634Z,54.50
2018-09-14T07:33:32.652Z,54.50
2018-09-14T07:34:35.696Z,54.50
2018-09-14T07:35:38.800Z,54.50
2018-09-14T07:36:42.045Z,54.40
2018-09-14T07:37:45.099Z,54.40
2018-09-14T07:38:48.128Z,54.40
2018-09-14T07:39:51.320Z,54.40
2018-09-14T07:40:54.375Z,54.40
2018-09-14T07:41:57.417Z,54.40
2018-09-14T07:43:00.453Z,54.40
2018-09-14T07:44:03.753Z,54.40
2018-09-14T07:45:06.825Z,54.30
2018-09-14T07:46:09.855Z,54.30
2018-09-14T07:47:12.950Z,54.30
2018-09-14T07:48:16.196Z,54.30
2018-09-14T07:49:19.163Z,54.30
2018-09-14T07:50:22.943Z,54.30
2018-09-14T07:51:25.959Z,54.30
2018-09-14T07:52:29.009Z,54.30
2018-09-14T07:53:32.063Z,54.20
2018-09-14T07:54:35.131Z,54.20
2018-09-14T07:55:38.365Z,54.20
2018-09-14T07:56:41.582Z,54.30
2018-09-14T07:57:44.697Z,54.30
2018-09-14T07:58:47.850Z,54.30
2018-09-14T07:59:51.059Z,54.30
2018-09-14T08:00:54.513Z,54.30
2018-09-14T08:01:57.614Z,54.30
2018-09-14T08:03:00.651Z,54.20
2018-09-14T08:04:03.982Z,54.30
2018-09-14T08:05:07.414Z,54.30
2018-09-14T08:06:10.704Z,54.90
2018-09-14T08:07:13.789Z,54.30
2018-09-14T08:08:17.044Z,54.30
2018-09-14T08:09:20.293Z,54.30
2018-09-14T08:10:23.701Z,54.30
2018-09-14T08:11:26.800Z,54.30
2018-09-14T08:12:30.385Z,54.30
2018-09-14T08:13:33.749Z,54.30
2018-09-14T08:14:36.985Z,54.30
2018-09-14T08:15:40.258Z,54.30
2018-09-14T08:16:43.339Z,54.30
2018-09-14T08:17:46.658Z,54.30
2018-09-14T08:18:49.894Z,54.30
2018-09-14T08:19:52.965Z,54.30
2018-09-14T08:20:56.073Z,54.30
2018-09-14T08:21:59.456Z,54.30
2018-09-14T08:23:02.815Z,54.30
2018-09-14T08:24:06.300Z,54.40
2018-09-14T08:25:09.564Z,54.30
2018-09-14T08:26:12.688Z,54.40
2018-09-14T08:27:16.015Z,54.30
2018-09-14T08:28:19.183Z,54.30
2018-09-14T08:29:22.240Z,54.30
2018-09-14T08:30:25.625Z,54.40
2018-09-14T08:31:28.709Z,54.50
2018-09-14T08:32:31.779Z,54.80
2018-09-14T08:33:34.918Z,54.90
2018-09-14T08:34:38.402Z,55.50
2018-09-14T08:35:41.428Z,55.00
2018-09-14T08:36:44.505Z,55.00
2018-09-14T08:37:47.563Z,55.00
2018-09-14T08:38:50.603Z,54.80
2018-09-14T08:39:53.934Z,54.80
2018-09-14T08:40:56.993Z,54.70
2018-09-14T08:42:01.932Z,54.70
2018-09-14T08:43:04.934Z,54.70
2018-09-14T08:44:08.084Z,54.70
2018-09-14T08:45:11.249Z,54.60
2018-09-14T08:46:14.516Z,54.60
2018-09-14T08:47:17.564Z,54.50
2018-09-14T08:48:20.611Z,54.50
2018-09-14T08:49:23.831Z,54.50
2018-09-14T08:50:26.916Z,54.50
2018-09-14T08:51:30.159Z,54.50
2018-09-14T08:52:33.286Z,54.50
2018-09-14T08:53:36.507Z,54.40
2018-09-14T08:54:39.569Z,54.40
2018-09-14T08:55:42.885Z,54.20
2018-09-14T08:56:46.453Z,54.40
2018-09-14T08:57:49.787Z,54.40
2018-09-14T08:58:52.938Z,54.40
2018-09-14T08:59:56.696Z,54.40
2018-09-14T09:00:59.964Z,54.30
2018-09-14T09:02:03.385Z,54.30
2018-09-14T09:03:06.409Z,54.40
2018-09-14T09:04:09.708Z,54.30
2018-09-14T09:05:12.816Z,54.30
2018-09-14T09:06:17.847Z,54.40
2018-09-14T09:07:22.089Z,54.40
2018-09-14T09:08:29.724Z,54.40
2018-09-14T09:09:38.425Z,54.40
2018-09-14T09:10:47.809Z,54.40
2018-09-14T09:11:53.236Z,54.30
2018-09-14T09:13:04.685Z,54.30
2018-09-14T09:14:13.027Z,54.30
2018-09-14T09:15:17.956Z,54.20
2018-09-14T09:16:21.884Z,54.20
2018-09-14T09:17:27.489Z,54.20
2018-09-14T09:18:34.908Z,54.20
2018-09-14T09:19:42.135Z,54.20
2018-09-14T09:20:52.634Z,54.30
2018-09-14T09:21:58.234Z,54.20
2018-09-14T09:23:04.961Z,54.20
2018-09-14T09:24:16.300Z,54.20
2018-09-14T09:25:19.974Z,54.20
2018-09-14T09:26:23.899Z,54.20
2018-09-14T09:27:27.038Z,54.20
2018-09-14T09:28:30.184Z,54.20
2018-09-14T09:29:33.377Z,54.20
2018-09-14T09:30:36.376Z,54.20
2018-09-14T09:31:39.706Z,54.20
2018-09-14T09:32:42.884Z,54.10
2018-09-14T09:33:45.981Z,54.00
2018-09-14T09:34:49.454Z,53.90
2018-09-14T09:35:52.925Z,53.80
2018-09-14T09:36:56.104Z,53.70
2018-09-14T09:37:59.185Z,54.00
2018-09-14T09:39:02.221Z,54.30
2018-09-14T09:40:05.492Z,54.30
2018-09-14T09:41:08.559Z,54.50
2018-09-14T09:42:11.561Z,54.60
2018-09-14T09:43:14.679Z,54.70
2018-09-14T09:44:17.709Z,54.80
2018-09-14T09:45:20.728Z,54.90
2018-09-14T09:46:23.831Z,55.00
2018-09-14T09:47:26.993Z,55.00
2018-09-14T09:48:30.090Z,55.40
2018-09-14T09:49:33.163Z,55.60
2018-09-14T09:50:36.188Z,56.30
2018-09-14T09:51:39.337Z,55.80
2018-09-14T09:52:42.337Z,55.90
2018-09-14T09:53:45.402Z,56.00
2018-09-14T09:54:48.457Z,56.10
2018-09-14T09:55:51.528Z,56.10
2018-09-14T09:56:54.616Z,56.00
2018-09-14T09:57:57.702Z,55.90
2018-09-14T09:59:00.799Z,55.80
2018-09-14T10:00:03.951Z,55.70
2018-09-14T10:01:12.392Z,55.70
2018-09-14T10:02:20.929Z,55.60
2018-09-14T10:03:29.341Z,55.30
2018-09-14T10:04:32.298Z,55.30
2018-09-14T10:05:40.692Z,55.20
2018-09-14T10:06:43.733Z,55.10
2018-09-14T10:07:47.000Z,55.10
2018-09-14T10:08:50.041Z,55.00
2018-09-14T10:09:53.280Z,54.90
2018-09-14T10:10:56.390Z,54.80
2018-09-14T10:12:06.080Z,54.70
2018-09-14T10:13:09.118Z,54.60
2018-09-14T10:14:12.219Z,54.50
2018-09-14T10:15:15.241Z,54.50
2018-09-14T10:16:18.272Z,54.50
2018-09-14T10:17:21.365Z,54.40
2018-09-14T10:18:24.396Z,54.40
2018-09-14T10:19:27.400Z,54.30
2018-09-14T10:20:30.387Z,54.20
2018-09-14T10:21:33.436Z,54.20
2018-09-14T10:22:36.546Z,54.20
2018-09-14T10:23:39.764Z,54.10
2018-09-14T10:24:42.929Z,54.10
2018-09-14T10:25:45.984Z,54.10
2018-09-14T10:26:49.074Z,54.00
2018-09-14T10:27:53.135Z,54.10
2018-09-14T10:28:56.212Z,54.10
2018-09-14T10:29:59.315Z,54.20
2018-09-14T10:31:02.449Z,54.10
2018-09-14T10:32:05.459Z,54.20
2018-09-14T10:33:08.500Z,54.20
2018-09-14T10:34:11.600Z,54.30
2018-09-14T10:35:14.788Z,54.50
2018-09-14T10:36:17.853Z,54.50
2018-09-14T10:37:20.903Z,54.10
2018-09-14T10:38:23.937Z,53.80
2018-09-14T10:39:33.974Z,53.60
2018-09-14T10:40:37.241Z,53.80
2018-09-14T10:41:40.209Z,54.00
2018-09-14T10:42:43.297Z,54.10
2018-09-14T10:43:46.565Z,54.20
2018-09-14T10:44:49.623Z,54.40
2018-09-14T10:45:52.692Z,54.70
2018-09-14T10:46:55.949Z,54.90
2018-09-14T10:47:59.552Z,55.10
2018-09-14T10:49:03.172Z,55.50
2018-09-14T10:50:06.940Z,55.60
2018-09-14T10:51:12.391Z,55.70
2018-09-14T10:52:15.581Z,56.60
2018-09-14T10:53:18.680Z,56.50
2018-09-14T10:54:21.751Z,57.10
2018-09-14T10:55:24.946Z,57.30
2018-09-14T10:56:28.030Z,57.70
2018-09-14T10:57:31.395Z,57.60
2018-09-14T10:58:39.985Z,57.60
2018-09-14T10:59:43.797Z,57.80
2018-09-14T11:00:47.130Z,58.10
2018-09-14T11:01:50.940Z,58.50
2018-09-14T11:02:54.135Z,58.70
2018-09-14T11:03:57.887Z,58.60
2018-09-14T11:05:00.973Z,58.50
2018-09-14T11:06:04.050Z,58.40
2018-09-14T11:07:07.173Z,58.20
2018-09-14T11:08:10.296Z,58.10
2018-09-14T11:09:13.871Z,58.00
2018-09-14T11:10:16.951Z,57.90
2018-09-14T11:11:20.006Z,57.80
2018-09-14T11:12:22.986Z,57.70
2018-09-14T11:13:26.016Z,57.80
2018-09-14T11:14:29.087Z,57.70
2018-09-14T11:15:32.580Z,57.60
2018-09-14T11:16:35.769Z,57.50
2018-09-14T11:17:39.009Z,57.50
2018-09-14T11:18:42.057Z,57.60
2018-09-14T11:19:45.270Z,57.80
2018-09-14T11:20:48.516Z,57.70
2018-09-14T11:21:51.764Z,57.80
2018-09-14T11:22:54.860Z,57.70
2018-09-14T11:23:57.926Z,57.80
2018-09-14T11:25:01.097Z,57.90
2018-09-14T11:26:04.140Z,57.80
2018-09-14T11:27:07.264Z,57.70
2018-09-14T11:28:10.317Z,57.70
2018-09-14T11:29:13.618Z,57.60
2018-09-14T11:30:16.683Z,57.50
2018-09-14T11:31:24.112Z,57.30
2018-09-14T11:32:27.659Z,57.10
2018-09-14T11:33:30.693Z,57.10
2018-09-14T11:34:33.734Z,57.30
2018-09-14T11:35:36.882Z,57.30
2018-09-14T11:36:39.961Z,57.20
2018-09-14T11:37:43.028Z,57.10
2018-09-14T11:38:46.112Z,57.00
2018-09-14T11:39:49.141Z,56.90
2018-09-14T11:40:52.391Z,56.90
2018-09-14T11:41:55.467Z,56.90
2018-09-14T11:42:58.521Z,56.90
2018-09-14T11:44:01.708Z,56.80
2018-09-14T11:45:05.032Z,56.70
2018-09-14T11:46:08.161Z,56.60
2018-09-14T11:47:11.176Z,56.60
2018-09-14T11:48:15.985Z,56.50
2018-09-14T11:49:19.910Z,56.60
2018-09-14T11:50:23.793Z,56.50
2018-09-14T11:51:27.766Z,56.50
2018-09-14T11:52:32.891Z,56.40
2018-09-14T11:53:42.432Z,56.40
2018-09-14T11:54:48.700Z,56.40
2018-09-14T11:55:51.902Z,56.50
2018-09-14T11:56:55.012Z,56.50
2018-09-14T11:57:58.044Z,56.50
2018-09-14T11:59:01.067Z,56.50
2018-09-14T12:00:04.108Z,56.50
2018-09-14T12:01:07.141Z,56.60
2018-09-14T12:02:10.129Z,56.60
2018-09-14T12:03:13.209Z,56.60
2018-09-14T12:04:16.212Z,56.60
2018-09-14T12:05:19.237Z,56.60
2018-09-14T12:06:22.376Z,56.50
2018-09-14T12:07:25.466Z,56.50
2018-09-14T12:08:28.616Z,56.50
2018-09-14T12:09:31.689Z,56.40
2018-09-14T12:10:34.698Z,56.30
2018-09-14T12:11:37.983Z,56.10
2018-09-14T12:12:41.061Z,56.10
2018-09-14T12:13:44.159Z,56.00
2018-09-14T12:14:47.201Z,56.10
2018-09-14T12:15:50.191Z,55.90
2018-09-14T12:16:53.196Z,55.90
2018-09-14T12:17:56.225Z,55.80
2018-09-14T12:18:59.244Z,55.80
2018-09-14T12:20:02.366Z,55.80
2018-09-14T12:21:05.504Z,55.90
2018-09-14T12:22:09.049Z,56.00
2018-09-14T12:23:12.156Z,56.00
2018-09-14T12:24:15.199Z,56.00
2018-09-14T12:25:18.211Z,56.10
2018-09-14T12:26:21.299Z,56.10
2018-09-14T12:27:24.509Z,56.10
2018-09-14T12:28:27.681Z,56.00
2018-09-14T12:29:30.753Z,56.00
2018-09-14T12:30:34.012Z,56.00
2018-09-14T12:31:37.180Z,56.00
2018-09-14T12:32:40.367Z,56.00
2018-09-14T12:33:43.453Z,56.10
2018-09-14T12:34:46.557Z,56.00
2018-09-14T12:35:49.588Z,56.00
2018-09-14T12:36:52.568Z,56.00
2018-09-14T12:37:55.591Z,56.00
2018-09-14T12:38:58.683Z,56.00
2018-09-14T12:40:01.812Z,56.00
2018-09-14T12:41:04.848Z,56.00
2018-09-14T12:42:07.901Z,56.00
2018-09-14T12:43:10.932Z,56.00
2018-09-14T12:44:13.951Z,56.00
2018-09-14T12:45:16.984Z,56.00
2018-09-14T12:46:20.184Z,56.10
2018-09-14T12:47:23.308Z,56.20
2018-09-14T12:48:26.300Z,56.20
2018-09-14T12:49:29.544Z,56.30
2018-09-14T12:50:32.596Z,56.30
2018-09-14T12:51:35.615Z,56.30
2018-09-14T12:52:38.615Z,56.40
2018-09-14T12:53:41.686Z,56.40
2018-09-14T12:54:44.677Z,56.50
2018-09-14T12:55:47.692Z,56.50
2018-09-14T12:56:50.685Z,56.40
2018-09-14T12:57:53.740Z,56.40
2018-09-14T12:58:56.712Z,56.40
2018-09-14T12:59:59.784Z,56.40
2018-09-14T13:01:02.821Z,56.30
2018-09-14T13:02:05.942Z,56.30
2018-09-14T13:03:08.976Z,56.40
2018-09-14T13:04:12.111Z,56.40
2018-09-14T13:05:15.143Z,56.40
2018-09-14T13:06:18.136Z,57.00
2018-09-14T13:07:21.533Z,56.10
2018-09-14T13:08:24.585Z,56.10
2018-09-14T13:09:27.614Z,56.20
2018-09-14T13:10:30.645Z,56.20
2018-09-14T13:11:33.903Z,56.00
2018-09-14T13:12:37.473Z,56.00
2018-09-14T13:13:40.580Z,55.90
2018-09-14T13:14:43.601Z,56.00
2018-09-14T13:15:46.692Z,55.90
2018-09-14T13:16:50.320Z,55.80
2018-09-14T13:17:53.322Z,55.90
2018-09-14T13:18:56.321Z,55.80
2018-09-14T13:19:59.359Z,55.80
2018-09-14T13:21:02.389Z,55.80
2018-09-14T13:22:05.362Z,55.90
2018-09-14T13:23:08.407Z,56.00
2018-09-14T13:24:11.523Z,55.90
2018-09-14T13:25:14.580Z,55.90
2018-09-14T13:26:17.636Z,55.80
2018-09-14T13:27:20.725Z,55.70
2018-09-14T13:28:23.839Z,55.80
2018-09-14T13:29:26.860Z,55.90
2018-09-14T13:30:29.950Z,56.10
2018-09-14T13:31:32.993Z,56.30
2018-09-14T13:32:36.020Z,56.60
2018-09-14T13:33:39.158Z,57.00
2018-09-14T13:34:42.119Z,57.30
2018-09-14T13:35:45.152Z,57.30